sensor_id;sensor_type;location;lat;lon;timestamp;temperature;humidity
27803;DHT22;15182;48.174;11.562;2023-08-21T00:01:31;30.40;73.30
27803;DHT22;15182;48.174;11.562;2023-08-21T00:03:59;30.40;73.30
27803;DHT22;15182;48.174;11.562;2023-08-21T00:06:27;30.40;73.50
27803;DHT22;15182;48.174;11.562;2023-08-21T00:08:55;30.40;74.40
27803;DHT22;15182;48.174;11.562;2023-08-21T00:11:22;30.30;73.70
27803;DHT22;15182;48.174;11.562;2023-08-21T00:13:50;30.30;73.70
27803;DHT22;15182;48.174;11.562;2023-08-21T00:16:19;30.20;73.70
27803;DHT22;15182;48.174;11.562;2023-08-21T00:18:47;30.20;74.80
27803;DHT22;15182;48.174;11.562;2023-08-21T00:21:15;30.20;73.80
27803;DHT22;15182;48.174;11.562;2023-08-21T00:23:43;30.10;73.80
27803;DHT22;15182;48.174;11.562;2023-08-21T00:26:11;30.10;73.80
27803;DHT22;15182;48.174;11.562;2023-08-21T00:28:38;30.10;73.90
27803;DHT22;15182;48.174;11.562;2023-08-21T00:31:06;30.10;74.00
27803;DHT22;15182;48.174;11.562;2023-08-21T00:33:35;30.10;74.00
27803;DHT22;15182;48.174;11.562;2023-08-21T00:36:04;30.10;74.00
27803;DHT22;15182;48.174;11.562;2023-08-21T00:38:32;30.10;74.00
27803;DHT22;15182;48.174;11.562;2023-08-21T00:41:00;30.00;74.00
27803;DHT22;15182;48.174;11.562;2023-08-21T00:43:28;30.00;74.00
27803;DHT22;15182;48.174;11.562;2023-08-21T00:45:55;30.00;74.10
27803;DHT22;15182;48.174;11.562;2023-08-21T00:48:24;29.90;74.00
27803;DHT22;15182;48.174;11.562;2023-08-21T00:50:53;30.00;74.20
27803;DHT22;15182;48.174;11.562;2023-08-21T00:53:22;30.00;74.30
27803;DHT22;15182;48.174;11.562;2023-08-21T00:55:52;29.90;74.10
27803;DHT22;15182;48.174;11.562;2023-08-21T00:58:20;29.90;74.90
27803;DHT22;15182;48.174;11.562;2023-08-21T01:00:49;29.90;73.90
27803;DHT22;15182;48.174;11.562;2023-08-21T01:03:19;29.90;73.80
27803;DHT22;15182;48.174;11.562;2023-08-21T01:05:47;29.90;74.60
27803;DHT22;15182;48.174;11.562;2023-08-21T01:08:23;29.90;73.70
27803;DHT22;15182;48.174;11.562;2023-08-21T01:10:56;29.90;73.80
27803;DHT22;15182;48.174;11.562;2023-08-21T01:13:44;29.90;73.70
27803;DHT22;15182;48.174;11.562;2023-08-21T01:16:16;29.80;73.70
27803;DHT22;15182;48.174;11.562;2023-08-21T01:18:45;29.80;73.60
27803;DHT22;15182;48.174;11.562;2023-08-21T01:21:16;29.80;73.70
27803;DHT22;15182;48.174;11.562;2023-08-21T01:23:46;29.70;73.70
27803;DHT22;15182;48.174;11.562;2023-08-21T01:26:13;29.70;73.90
27803;DHT22;15182;48.174;11.562;2023-08-21T01:28:41;29.70;73.90
27803;DHT22;15182;48.174;11.562;2023-08-21T01:31:15;29.70;74.00
27803;DHT22;15182;48.174;11.562;2023-08-21T01:33:48;29.60;74.80
27803;DHT22;15182;48.174;11.562;2023-08-21T01:36:18;29.60;73.80
27803;DHT22;15182;48.174;11.562;2023-08-21T01:38:48;29.60;73.90
27803;DHT22;15182;48.174;11.562;2023-08-21T01:41:16;29.60;74.00
27803;DHT22;15182;48.174;11.562;2023-08-21T01:43:44;29.60;73.90
27803;DHT22;15182;48.174;11.562;2023-08-21T01:46:12;29.60;73.80
27803;DHT22;15182;48.174;11.562;2023-08-21T01:48:40;29.60;74.10
27803;DHT22;15182;48.174;11.562;2023-08-21T01:51:08;29.50;74.10
27803;DHT22;15182;48.174;11.562;2023-08-21T01:53:35;29.50;74.10
27803;DHT22;15182;48.174;11.562;2023-08-21T01:56:05;29.50;74.20
27803;DHT22;15182;48.174;11.562;2023-08-21T01:58:33;29.50;74.20
27803;DHT22;15182;48.174;11.562;2023-08-21T02:01:01;29.50;74.10
27803;DHT22;15182;48.174;11.562;2023-08-21T02:03:30;29.40;74.00
27803;DHT22;15182;48.174;11.562;2023-08-21T02:05:58;29.40;74.10
27803;DHT22;15182;48.174;11.562;2023-08-21T02:08:30;29.40;74.20
27803;DHT22;15182;48.174;11.562;2023-08-21T02:10:59;29.30;74.30
27803;DHT22;15182;48.174;11.562;2023-08-21T02:13:28;29.30;74.30
27803;DHT22;15182;48.174;11.562;2023-08-21T02:15:56;29.30;74.60
27803;DHT22;15182;48.174;11.562;2023-08-21T02:18:24;29.30;74.60
27803;DHT22;15182;48.174;11.562;2023-08-21T02:20:51;29.30;74.70
27803;DHT22;15182;48.174;11.562;2023-08-21T02:23:19;29.20;74.80
27803;DHT22;15182;48.174;11.562;2023-08-21T02:25:47;29.20;75.80
27803;DHT22;15182;48.174;11.562;2023-08-21T02:28:16;29.10;75.00
27803;DHT22;15182;48.174;11.562;2023-08-21T02:30:46;29.10;76.00
27803;DHT22;15182;48.174;11.562;2023-08-21T02:33:14;29.00;75.30
27803;DHT22;15182;48.174;11.562;2023-08-21T02:35:42;29.00;76.10
27803;DHT22;15182;48.174;11.562;2023-08-21T02:38:10;29.00;75.40
27803;DHT22;15182;48.174;11.562;2023-08-21T02:40:38;28.90;75.40
27803;DHT22;15182;48.174;11.562;2023-08-21T02:43:06;28.90;75.40
27803;DHT22;15182;48.174;11.562;2023-08-21T02:45:33;28.90;75.40
27803;DHT22;15182;48.174;11.562;2023-08-21T02:48:03;28.90;75.40
27803;DHT22;15182;48.174;11.562;2023-08-21T02:50:34;28.80;75.40
27803;DHT22;15182;48.174;11.562;2023-08-21T02:53:02;28.80;76.20
27803;DHT22;15182;48.174;11.562;2023-08-21T02:55:30;28.80;75.50
27803;DHT22;15182;48.174;11.562;2023-08-21T02:57:58;28.70;75.50
27803;DHT22;15182;48.174;11.562;2023-08-21T03:00:26;28.70;75.60
27803;DHT22;15182;48.174;11.562;2023-08-21T03:02:54;28.70;75.60
27803;DHT22;15182;48.174;11.562;2023-08-21T03:05:23;28.70;75.80
27803;DHT22;15182;48.174;11.562;2023-08-21T03:07:51;28.60;75.90
27803;DHT22;15182;48.174;11.562;2023-08-21T03:10:18;28.60;75.90
27803;DHT22;15182;48.174;11.562;2023-08-21T03:12:47;28.60;75.90
27803;DHT22;15182;48.174;11.562;2023-08-21T03:15:14;28.50;75.90
27803;DHT22;15182;48.174;11.562;2023-08-21T03:17:42;28.50;76.10
27803;DHT22;15182;48.174;11.562;2023-08-21T03:20:11;28.40;76.20
27803;DHT22;15182;48.174;11.562;2023-08-21T03:22:40;28.40;76.30
27803;DHT22;15182;48.174;11.562;2023-08-21T03:25:09;28.40;76.50
27803;DHT22;15182;48.174;11.562;2023-08-21T03:27:37;28.30;76.50
27803;DHT22;15182;48.174;11.562;2023-08-21T03:30:07;28.30;76.50
27803;DHT22;15182;48.174;11.562;2023-08-21T03:32:35;28.30;76.80
27803;DHT22;15182;48.174;11.562;2023-08-21T03:35:03;28.30;76.80
27803;DHT22;15182;48.174;11.562;2023-08-21T03:37:31;28.30;77.00
27803;DHT22;15182;48.174;11.562;2023-08-21T03:40:02;28.20;77.00
27803;DHT22;15182;48.174;11.562;2023-08-21T03:42:32;28.20;77.30
27803;DHT22;15182;48.174;11.562;2023-08-21T03:45:00;28.20;77.20
27803;DHT22;15182;48.174;11.562;2023-08-21T03:47:30;28.20;77.20
27803;DHT22;15182;48.174;11.562;2023-08-21T03:50:03;28.20;77.30
27803;DHT22;15182;48.174;11.562;2023-08-21T03:52:31;28.20;77.30
27803;DHT22;15182;48.174;11.562;2023-08-21T03:54:58;28.20;77.30
27803;DHT22;15182;48.174;11.562;2023-08-21T03:57:28;28.20;77.40
27803;DHT22;15182;48.174;11.562;2023-08-21T03:59:56;28.20;77.40
27803;DHT22;15182;48.174;11.562;2023-08-21T04:02:24;28.10;77.40
27803;DHT22;15182;48.174;11.562;2023-08-21T04:04:52;28.10;77.50
27803;DHT22;15182;48.174;11.562;2023-08-21T04:07:20;28.10;77.60
27803;DHT22;15182;48.174;11.562;2023-08-21T04:09:48;28.10;77.70
27803;DHT22;15182;48.174;11.562;2023-08-21T04:12:17;28.10;78.00
27803;DHT22;15182;48.174;11.562;2023-08-21T04:14:45;28.00;78.00
27803;DHT22;15182;48.174;11.562;2023-08-21T04:17:14;28.00;77.90
27803;DHT22;15182;48.174;11.562;2023-08-21T04:19:42;28.00;78.90
27803;DHT22;15182;48.174;11.562;2023-08-21T04:22:10;28.00;78.20
27803;DHT22;15182;48.174;11.562;2023-08-21T04:24:37;28.00;79.20
27803;DHT22;15182;48.174;11.562;2023-08-21T04:27:05;28.00;78.40
27803;DHT22;15182;48.174;11.562;2023-08-21T04:29:35;27.90;78.30
27803;DHT22;15182;48.174;11.562;2023-08-21T04:32:03;28.00;78.50
27803;DHT22;15182;48.174;11.562;2023-08-21T04:34:32;27.90;78.30
27803;DHT22;15182;48.174;11.562;2023-08-21T04:37:00;27.90;78.30
27803;DHT22;15182;48.174;11.562;2023-08-21T04:39:28;27.90;78.30
27803;DHT22;15182;48.174;11.562;2023-08-21T04:41:56;27.90;79.30
27803;DHT22;15182;48.174;11.562;2023-08-21T04:44:24;27.90;78.50
27803;DHT22;15182;48.174;11.562;2023-08-21T04:46:53;27.90;78.60
27803;DHT22;15182;48.174;11.562;2023-08-21T04:49:21;27.80;78.60
27803;DHT22;15182;48.174;11.562;2023-08-21T04:51:49;27.80;78.70
27803;DHT22;15182;48.174;11.562;2023-08-21T04:54:17;27.80;79.60
27803;DHT22;15182;48.174;11.562;2023-08-21T04:56:45;27.80;78.80
27803;DHT22;15182;48.174;11.562;2023-08-21T04:59:13;27.80;78.90
27803;DHT22;15182;48.174;11.562;2023-08-21T05:01:41;27.80;79.00
27803;DHT22;15182;48.174;11.562;2023-08-21T05:04:10;27.80;79.10
27803;DHT22;15182;48.174;11.562;2023-08-21T05:06:38;27.80;79.30
27803;DHT22;15182;48.174;11.562;2023-08-21T05:09:06;27.80;79.30
27803;DHT22;15182;48.174;11.562;2023-08-21T05:11:34;27.80;79.40
27803;DHT22;15182;48.174;11.562;2023-08-21T05:14:02;27.80;79.40
27803;DHT22;15182;48.174;11.562;2023-08-21T05:16:30;27.80;79.50
27803;DHT22;15182;48.174;11.562;2023-08-21T05:18:58;27.80;79.60
27803;DHT22;15182;48.174;11.562;2023-08-21T05:21:28;27.80;79.60
27803;DHT22;15182;48.174;11.562;2023-08-21T05:23:55;27.80;79.70
27803;DHT22;15182;48.174;11.562;2023-08-21T05:26:27;27.80;79.60
27803;DHT22;15182;48.174;11.562;2023-08-21T05:28:54;27.90;79.70
27803;DHT22;15182;48.174;11.562;2023-08-21T05:31:22;27.90;79.80
27803;DHT22;15182;48.174;11.562;2023-08-21T05:33:53;27.90;79.80
27803;DHT22;15182;48.174;11.562;2023-08-21T05:36:21;27.90;79.80
27803;DHT22;15182;48.174;11.562;2023-08-21T05:38:50;27.90;79.90
27803;DHT22;15182;48.174;11.562;2023-08-21T05:41:18;27.90;80.00
27803;DHT22;15182;48.174;11.562;2023-08-21T05:43:48;27.90;79.90
27803;DHT22;15182;48.174;11.562;2023-08-21T05:46:16;27.90;79.90
27803;DHT22;15182;48.174;11.562;2023-08-21T05:48:44;27.90;79.90
27803;DHT22;15182;48.174;11.562;2023-08-21T05:51:12;27.90;80.10
27803;DHT22;15182;48.174;11.562;2023-08-21T05:53:40;27.90;80.20
27803;DHT22;15182;48.174;11.562;2023-08-21T05:56:09;27.90;80.10
27803;DHT22;15182;48.174;11.562;2023-08-21T05:58:37;27.90;80.10
27803;DHT22;15182;48.174;11.562;2023-08-21T06:01:05;27.90;79.90
27803;DHT22;15182;48.174;11.562;2023-08-21T06:03:34;27.90;80.00
27803;DHT22;15182;48.174;11.562;2023-08-21T06:06:10;27.90;80.10
27803;DHT22;15182;48.174;11.562;2023-08-21T06:08:38;27.90;80.10
27803;DHT22;15182;48.174;11.562;2023-08-21T06:11:06;27.90;80.20
27803;DHT22;15182;48.174;11.562;2023-08-21T06:13:35;27.90;80.30
27803;DHT22;15182;48.174;11.562;2023-08-21T06:16:03;28.00;80.40
27803;DHT22;15182;48.174;11.562;2023-08-21T06:18:32;28.00;80.30
27803;DHT22;15182;48.174;11.562;2023-08-21T06:21:00;28.00;80.20
27803;DHT22;15182;48.174;11.562;2023-08-21T06:23:28;28.00;80.20
27803;DHT22;15182;48.174;11.562;2023-08-21T06:25:56;28.00;80.30
27803;DHT22;15182;48.174;11.562;2023-08-21T06:28:24;28.00;80.40
27803;DHT22;15182;48.174;11.562;2023-08-21T06:30:57;28.00;80.40
27803;DHT22;15182;48.174;11.562;2023-08-21T06:33:25;28.10;80.60
27803;DHT22;15182;48.174;11.562;2023-08-21T06:35:54;28.00;80.10
27803;DHT22;15182;48.174;11.562;2023-08-21T06:38:22;28.00;80.10
27803;DHT22;15182;48.174;11.562;2023-08-21T06:40:50;28.10;80.10
27803;DHT22;15182;48.174;11.562;2023-08-21T06:43:18;28.10;80.20
27803;DHT22;15182;48.174;11.562;2023-08-21T06:45:49;28.00;80.20
27803;DHT22;15182;48.174;11.562;2023-08-21T06:48:18;28.10;80.30
27803;DHT22;15182;48.174;11.562;2023-08-21T06:50:46;28.10;80.40
27803;DHT22;15182;48.174;11.562;2023-08-21T06:53:14;28.10;80.20
27803;DHT22;15182;48.174;11.562;2023-08-21T06:55:44;28.10;80.20
27803;DHT22;15182;48.174;11.562;2023-08-21T06:58:12;28.20;80.50
27803;DHT22;15182;48.174;11.562;2023-08-21T07:00:40;28.20;80.20
27803;DHT22;15182;48.174;11.562;2023-08-21T07:03:07;28.20;80.20
27803;DHT22;15182;48.174;11.562;2023-08-21T07:05:37;28.30;80.30
27803;DHT22;15182;48.174;11.562;2023-08-21T07:08:05;28.40;80.40
27803;DHT22;15182;48.174;11.562;2023-08-21T07:10:35;28.40;80.40
27803;DHT22;15182;48.174;11.562;2023-08-21T07:13:04;28.50;80.50
27803;DHT22;15182;48.174;11.562;2023-08-21T07:15:32;28.50;80.30
27803;DHT22;15182;48.174;11.562;2023-08-21T07:17:59;28.60;81.20
27803;DHT22;15182;48.174;11.562;2023-08-21T07:20:27;28.70;80.20
27803;DHT22;15182;48.174;11.562;2023-08-21T07:22:57;28.80;80.20
27803;DHT22;15182;48.174;11.562;2023-08-21T07:25:25;28.90;80.20
27803;DHT22;15182;48.174;11.562;2023-08-21T07:27:55;29.00;80.00
27803;DHT22;15182;48.174;11.562;2023-08-21T07:30:23;29.10;79.80
27803;DHT22;15182;48.174;11.562;2023-08-21T07:32:52;29.20;79.60
27803;DHT22;15182;48.174;11.562;2023-08-21T07:35:20;29.30;79.60
27803;DHT22;15182;48.174;11.562;2023-08-21T07:37:48;29.50;79.50
27803;DHT22;15182;48.174;11.562;2023-08-21T07:40:17;29.50;79.30
27803;DHT22;15182;48.174;11.562;2023-08-21T07:42:45;29.70;79.10
27803;DHT22;15182;48.174;11.562;2023-08-21T07:45:13;29.80;79.10
27803;DHT22;15182;48.174;11.562;2023-08-21T07:47:40;29.90;78.20
27803;DHT22;15182;48.174;11.562;2023-08-21T07:50:09;30.10;78.10
27803;DHT22;15182;48.174;11.562;2023-08-21T07:52:37;30.20;77.70
27803;DHT22;15182;48.174;11.562;2023-08-21T07:55:05;30.30;77.40
27803;DHT22;15182;48.174;11.562;2023-08-21T07:57:35;30.40;77.20
27803;DHT22;15182;48.174;11.562;2023-08-21T08:00:04;30.50;76.80
27803;DHT22;15182;48.174;11.562;2023-08-21T08:02:39;30.60;76.60
27803;DHT22;15182;48.174;11.562;2023-08-21T08:05:09;30.70;77.30
27803;DHT22;15182;48.174;11.562;2023-08-21T08:07:37;30.80;76.40
27803;DHT22;15182;48.174;11.562;2023-08-21T08:10:05;30.80;76.20
27803;DHT22;15182;48.174;11.562;2023-08-21T08:12:33;30.90;76.20
27803;DHT22;15182;48.174;11.562;2023-08-21T08:15:02;31.00;75.80
27803;DHT22;15182;48.174;11.562;2023-08-21T08:17:30;31.10;75.40
27803;DHT22;15182;48.174;11.562;2023-08-21T08:19:58;31.20;75.90
27803;DHT22;15182;48.174;11.562;2023-08-21T08:22:26;31.20;75.60
27803;DHT22;15182;48.174;11.562;2023-08-21T08:24:54;31.30;75.60
27803;DHT22;15182;48.174;11.562;2023-08-21T08:27:22;31.30;75.30
27803;DHT22;15182;48.174;11.562;2023-08-21T08:29:50;31.40;75.20
27803;DHT22;15182;48.174;11.562;2023-08-21T08:32:20;31.50;74.60
27803;DHT22;15182;48.174;11.562;2023-08-21T08:34:48;31.60;73.80
27803;DHT22;15182;48.174;11.562;2023-08-21T08:37:15;31.60;74.10
27803;DHT22;15182;48.174;11.562;2023-08-21T08:39:43;31.70;73.60
27803;DHT22;15182;48.174;11.562;2023-08-21T08:42:11;31.80;73.70
27803;DHT22;15182;48.174;11.562;2023-08-21T08:44:41;31.80;73.80
27803;DHT22;15182;48.174;11.562;2023-08-21T08:47:10;31.90;73.20
27803;DHT22;15182;48.174;11.562;2023-08-21T08:49:40;31.90;72.60
27803;DHT22;15182;48.174;11.562;2023-08-21T08:52:08;32.00;72.20
27803;DHT22;15182;48.174;11.562;2023-08-21T08:54:37;32.00;72.00
27803;DHT22;15182;48.174;11.562;2023-08-21T08:57:05;32.10;72.60
27803;DHT22;15182;48.174;11.562;2023-08-21T08:59:33;32.20;71.60
27803;DHT22;15182;48.174;11.562;2023-08-21T09:02:00;32.20;71.00
27803;DHT22;15182;48.174;11.562;2023-08-21T09:04:28;32.20;71.00
27803;DHT22;15182;48.174;11.562;2023-08-21T09:07:07;32.30;71.60
27803;DHT22;15182;48.174;11.562;2023-08-21T09:09:39;32.40;69.90
27803;DHT22;15182;48.174;11.562;2023-08-21T09:12:11;32.50;68.90
27803;DHT22;15182;48.174;11.562;2023-08-21T09:14:39;32.60;68.30
27803;DHT22;15182;48.174;11.562;2023-08-21T09:17:08;32.70;68.50
27803;DHT22;15182;48.174;11.562;2023-08-21T09:19:36;32.70;68.60
27803;DHT22;15182;48.174;11.562;2023-08-21T09:22:10;32.80;68.20
27803;DHT22;15182;48.174;11.562;2023-08-21T09:24:40;32.80;67.30
27803;DHT22;15182;48.174;11.562;2023-08-21T09:27:13;32.90;68.60
27803;DHT22;15182;48.174;11.562;2023-08-21T09:29:43;33.00;66.80
27803;DHT22;15182;48.174;11.562;2023-08-21T09:32:10;33.10;67.20
27803;DHT22;15182;48.174;11.562;2023-08-21T09:34:38;33.20;67.10
27803;DHT22;15182;48.174;11.562;2023-08-21T09:37:07;33.30;67.20
27803;DHT22;15182;48.174;11.562;2023-08-21T09:39:37;33.30;66.30
27803;DHT22;15182;48.174;11.562;2023-08-21T09:42:06;33.50;65.60
27803;DHT22;15182;48.174;11.562;2023-08-21T09:44:38;33.50;65.70
27803;DHT22;15182;48.174;11.562;2023-08-21T09:47:08;33.60;65.20
27803;DHT22;15182;48.174;11.562;2023-08-21T09:49:38;33.70;65.50
27803;DHT22;15182;48.174;11.562;2023-08-21T09:52:09;33.80;65.80
27803;DHT22;15182;48.174;11.562;2023-08-21T09:54:38;33.90;65.50
27803;DHT22;15182;48.174;11.562;2023-08-21T09:57:06;34.00;65.10
27803;DHT22;15182;48.174;11.562;2023-08-21T09:59:35;34.10;64.70
27803;DHT22;15182;48.174;11.562;2023-08-21T10:02:05;34.30;64.90
27803;DHT22;15182;48.174;11.562;2023-08-21T10:04:35;34.40;65.40
27803;DHT22;15182;48.174;11.562;2023-08-21T10:07:06;34.50;64.20
27803;DHT22;15182;48.174;11.562;2023-08-21T10:09:37;34.70;63.70
27803;DHT22;15182;48.174;11.562;2023-08-21T10:12:06;34.70;63.30
27803;DHT22;15182;48.174;11.562;2023-08-21T10:14:36;34.90;62.80
27803;DHT22;15182;48.174;11.562;2023-08-21T10:17:05;35.00;62.10
27803;DHT22;15182;48.174;11.562;2023-08-21T10:19:35;35.10;61.70
27803;DHT22;15182;48.174;11.562;2023-08-21T10:22:03;35.20;61.30
27803;DHT22;15182;48.174;11.562;2023-08-21T10:24:36;35.40;61.10
27803;DHT22;15182;48.174;11.562;2023-08-21T10:27:06;35.50;60.20
27803;DHT22;15182;48.174;11.562;2023-08-21T10:29:34;35.60;59.90
27803;DHT22;15182;48.174;11.562;2023-08-21T10:32:04;35.70;59.80
27803;DHT22;15182;48.174;11.562;2023-08-21T10:34:34;35.90;60.00
27803;DHT22;15182;48.174;11.562;2023-08-21T10:37:08;36.10;59.50
27803;DHT22;15182;48.174;11.562;2023-08-21T10:39:54;36.20;59.30
27803;DHT22;15182;48.174;11.562;2023-08-21T10:42:37;36.30;59.00
27803;DHT22;15182;48.174;11.562;2023-08-21T10:45:10;36.50;58.10
27803;DHT22;15182;48.174;11.562;2023-08-21T10:47:38;36.60;57.70
27803;DHT22;15182;48.174;11.562;2023-08-21T10:50:07;36.80;58.20
27803;DHT22;15182;48.174;11.562;2023-08-21T10:52:37;37.00;58.10
27803;DHT22;15182;48.174;11.562;2023-08-21T10:55:10;37.10;57.50
27803;DHT22;15182;48.174;11.562;2023-08-21T10:57:39;37.30;56.30
27803;DHT22;15182;48.174;11.562;2023-08-21T11:00:09;37.40;56.90
27803;DHT22;15182;48.174;11.562;2023-08-21T11:02:40;37.50;57.00
27803;DHT22;15182;48.174;11.562;2023-08-21T11:05:09;37.50;57.30
27803;DHT22;15182;48.174;11.562;2023-08-21T11:07:38;37.60;57.70
27803;DHT22;15182;48.174;11.562;2023-08-21T11:10:10;37.70;57.30
27803;DHT22;15182;48.174;11.562;2023-08-21T11:12:48;37.80;56.40
27803;DHT22;15182;48.174;11.562;2023-08-21T11:15:19;38.00;55.80
27803;DHT22;15182;48.174;11.562;2023-08-21T11:17:54;38.10;56.60
27803;DHT22;15182;48.174;11.562;2023-08-21T11:20:23;38.20;55.40
27803;DHT22;15182;48.174;11.562;2023-08-21T11:22:57;38.30;56.30
27803;DHT22;15182;48.174;11.562;2023-08-21T11:25:26;38.50;55.80
27803;DHT22;15182;48.174;11.562;2023-08-21T11:27:54;38.60;55.50
27803;DHT22;15182;48.174;11.562;2023-08-21T11:30:22;38.60;55.80
27803;DHT22;15182;48.174;11.562;2023-08-21T11:33:04;38.70;55.40
27803;DHT22;15182;48.174;11.562;2023-08-21T11:35:32;38.80;55.90
27803;DHT22;15182;48.174;11.562;2023-08-21T11:38:00;38.90;55.40
27803;DHT22;15182;48.174;11.562;2023-08-21T11:40:29;39.00;55.60
27803;DHT22;15182;48.174;11.562;2023-08-21T11:43:00;39.10;55.90
27803;DHT22;15182;48.174;11.562;2023-08-21T11:45:29;39.10;55.10
27803;DHT22;15182;48.174;11.562;2023-08-21T11:47:58;39.20;55.40
27803;DHT22;15182;48.174;11.562;2023-08-21T11:50:26;39.20;55.40
27803;DHT22;15182;48.174;11.562;2023-08-21T11:52:55;39.20;54.80
27803;DHT22;15182;48.174;11.562;2023-08-21T11:55:23;39.20;55.80
27803;DHT22;15182;48.174;11.562;2023-08-21T11:57:52;39.30;54.90
27803;DHT22;15182;48.174;11.562;2023-08-21T12:00:27;39.30;54.50
27803;DHT22;15182;48.174;11.562;2023-08-21T12:02:57;39.30;54.00
27803;DHT22;15182;48.174;11.562;2023-08-21T12:05:26;39.30;54.90
27803;DHT22;15182;48.174;11.562;2023-08-21T12:07:55;39.40;54.40
27803;DHT22;15182;48.174;11.562;2023-08-21T12:10:24;39.50;54.50
27803;DHT22;15182;48.174;11.562;2023-08-21T12:12:53;39.50;54.10
27803;DHT22;15182;48.174;11.562;2023-08-21T12:15:21;39.60;53.80
27803;DHT22;15182;48.174;11.562;2023-08-21T12:17:49;39.60;54.10
27803;DHT22;15182;48.174;11.562;2023-08-21T12:20:17;39.60;53.60
27803;DHT22;15182;48.174;11.562;2023-08-21T12:22:45;39.70;53.60
27803;DHT22;15182;48.174;11.562;2023-08-21T12:25:13;39.70;53.80
27803;DHT22;15182;48.174;11.562;2023-08-21T12:27:42;39.70;53.30
27803;DHT22;15182;48.174;11.562;2023-08-21T12:30:11;39.80;53.40
27803;DHT22;15182;48.174;11.562;2023-08-21T12:32:39;39.80;53.70
27803;DHT22;15182;48.174;11.562;2023-08-21T12:35:08;39.80;54.30
27803;DHT22;15182;48.174;11.562;2023-08-21T12:37:38;39.90;53.50
27803;DHT22;15182;48.174;11.562;2023-08-21T12:40:07;39.90;53.40
27803;DHT22;15182;48.174;11.562;2023-08-21T12:42:35;39.90;53.40
27803;DHT22;15182;48.174;11.562;2023-08-21T12:45:04;40.00;53.40
27803;DHT22;15182;48.174;11.562;2023-08-21T12:47:33;40.00;53.10
27803;DHT22;15182;48.174;11.562;2023-08-21T12:50:01;40.00;53.00
27803;DHT22;15182;48.174;11.562;2023-08-21T12:52:29;39.90;53.20
27803;DHT22;15182;48.174;11.562;2023-08-21T12:54:57;39.90;53.10
27803;DHT22;15182;48.174;11.562;2023-08-21T12:57:25;40.00;53.80
27803;DHT22;15182;48.174;11.562;2023-08-21T12:59:53;40.00;53.20
27803;DHT22;15182;48.174;11.562;2023-08-21T13:02:21;40.10;52.80
27803;DHT22;15182;48.174;11.562;2023-08-21T13:04:50;40.00;52.90
27803;DHT22;15182;48.174;11.562;2023-08-21T13:07:18;40.10;52.90
27803;DHT22;15182;48.174;11.562;2023-08-21T13:09:46;40.10;52.50
27803;DHT22;15182;48.174;11.562;2023-08-21T13:12:14;40.10;52.70
27803;DHT22;15182;48.174;11.562;2023-08-21T13:14:42;40.20;52.10
27803;DHT22;15182;48.174;11.562;2023-08-21T13:17:12;40.10;52.30
27803;DHT22;15182;48.174;11.562;2023-08-21T13:19:40;40.10;52.60
27803;DHT22;15182;48.174;11.562;2023-08-21T13:22:09;40.10;53.00
27803;DHT22;15182;48.174;11.562;2023-08-21T13:24:36;40.10;52.80
27803;DHT22;15182;48.174;11.562;2023-08-21T13:27:04;40.10;52.80
27803;DHT22;15182;48.174;11.562;2023-08-21T13:29:32;40.10;52.00
27803;DHT22;15182;48.174;11.562;2023-08-21T13:32:00;40.20;51.90
27803;DHT22;15182;48.174;11.562;2023-08-21T13:34:30;40.20;52.10
27803;DHT22;15182;48.174;11.562;2023-08-21T13:36:57;40.20;52.20
27803;DHT22;15182;48.174;11.562;2023-08-21T13:39:26;40.20;52.30
27803;DHT22;15182;48.174;11.562;2023-08-21T13:41:54;40.20;52.40
27803;DHT22;15182;48.174;11.562;2023-08-21T13:44:22;40.10;52.00
27803;DHT22;15182;48.174;11.562;2023-08-21T13:46:50;40.10;52.20
27803;DHT22;15182;48.174;11.562;2023-08-21T13:49:17;40.10;52.30
27803;DHT22;15182;48.174;11.562;2023-08-21T13:51:45;40.10;52.50
27803;DHT22;15182;48.174;11.562;2023-08-21T13:54:13;40.00;52.50
27803;DHT22;15182;48.174;11.562;2023-08-21T13:56:42;40.10;52.80
27803;DHT22;15182;48.174;11.562;2023-08-21T13:59:10;40.10;52.50
27803;DHT22;15182;48.174;11.562;2023-08-21T14:01:38;40.00;52.40
27803;DHT22;15182;48.174;11.562;2023-08-21T14:04:06;40.00;52.40
27803;DHT22;15182;48.174;11.562;2023-08-21T14:06:33;40.00;53.30
27803;DHT22;15182;48.174;11.562;2023-08-21T14:09:01;39.90;52.20
27803;DHT22;15182;48.174;11.562;2023-08-21T14:11:29;39.90;51.90
27803;DHT22;15182;48.174;11.562;2023-08-21T14:13:58;39.90;51.90
27803;DHT22;15182;48.174;11.562;2023-08-21T14:16:26;39.90;51.70
27803;DHT22;15182;48.174;11.562;2023-08-21T14:18:54;39.80;51.80
27803;DHT22;15182;48.174;11.562;2023-08-21T14:21:21;39.80;52.00
27803;DHT22;15182;48.174;11.562;2023-08-21T14:23:49;39.80;52.00
27803;DHT22;15182;48.174;11.562;2023-08-21T14:26:17;39.80;52.10
27803;DHT22;15182;48.174;11.562;2023-08-21T14:28:45;39.70;52.10
27803;DHT22;15182;48.174;11.562;2023-08-21T14:31:18;39.70;51.80
27803;DHT22;15182;48.174;11.562;2023-08-21T14:33:45;39.60;51.70
27803;DHT22;15182;48.174;11.562;2023-08-21T14:36:13;39.60;51.80
27803;DHT22;15182;48.174;11.562;2023-08-21T14:38:44;39.50;51.70
27803;DHT22;15182;48.174;11.562;2023-08-21T14:41:12;39.50;51.90
27803;DHT22;15182;48.174;11.562;2023-08-21T14:43:40;39.40;52.10
27803;DHT22;15182;48.174;11.562;2023-08-21T14:46:07;39.30;52.30
27803;DHT22;15182;48.174;11.562;2023-08-21T14:48:37;39.30;52.30
27803;DHT22;15182;48.174;11.562;2023-08-21T14:51:05;39.30;52.30
27803;DHT22;15182;48.174;11.562;2023-08-21T14:53:33;39.20;52.30
27803;DHT22;15182;48.174;11.562;2023-08-21T14:56:01;39.20;52.20
27803;DHT22;15182;48.174;11.562;2023-08-21T14:58:29;39.10;52.30
27803;DHT22;15182;48.174;11.562;2023-08-21T15:00:57;39.00;52.20
27803;DHT22;15182;48.174;11.562;2023-08-21T15:03:25;39.00;52.30
27803;DHT22;15182;48.174;11.562;2023-08-21T15:05:54;38.90;52.10
27803;DHT22;15182;48.174;11.562;2023-08-21T15:08:22;38.80;52.10
27803;DHT22;15182;48.174;11.562;2023-08-21T15:10:49;38.70;52.30
27803;DHT22;15182;48.174;11.562;2023-08-21T15:13:17;38.60;52.20
27803;DHT22;15182;48.174;11.562;2023-08-21T15:15:45;38.60;52.50
27803;DHT22;15182;48.174;11.562;2023-08-21T15:18:13;38.50;52.70
27803;DHT22;15182;48.174;11.562;2023-08-21T15:20:41;38.40;53.00
27803;DHT22;15182;48.174;11.562;2023-08-21T15:23:10;38.30;53.20
27803;DHT22;15182;48.174;11.562;2023-08-21T15:25:38;38.30;53.10